Time;durP1;ratioP1;P1;durP2;ratioP2;P2;SDS_P1;SDS_P2;PMS_P1;PMS_P2;Temp;Humidity;BMP_temperature;BMP_pressure;BME280_temperature;BME280_humidity;BME280_pressure;Samples;Min_cycle;Max_cycle;Signal;HPM_P1;HPM_P2
2023/10/02 00:01:58;;;;;;;;;;;;;;;-140.72;100.00;52717.56;5072721;28;20395;-69
2023/10/02 00:04:25;;;;;;;;;;;;;;;-140.72;100.00;52664.81;5073285;28;20002;-69
2023/10/02 00:07:05;;;;;;;;;;;;;;;-140.72;100.00;52711.47;5072899;28;19920;-69
2023/10/02 00:09:34;;;;;;;;;;;;;;;-140.72;100.00;52670.88;5073290;28;19924;-69
2023/10/02 00:12:01;;;;;;;;;;;;;;;-140.72;100.00;52693.22;5074909;28;19924;-69
2023/10/02 00:14:34;;;;;;;;;;;;;;;-140.72;100.00;52719.59;5076879;28;19943;-69
2023/10/02 00:17:00;;;;;;;;;;;;;;;-140.72;100.00;52691.19;5076973;28;19921;-69
2023/10/02 00:19:43;;;;;;;;;;;;;;;-140.72;100.00;52681.03;5075628;28;19916;-69
2023/10/02 00:22:34;;;;;;;;;;;;;;;-140.72;100.00;52693.22;5078565;28;19940;-69
2023/10/02 00:24:57;;;;;;;;;;;;;;;-140.72;100.00;52705.38;5076224;28;19923;-69
2023/10/02 00:27:24;;;;;;;;;;;;;;;-140.72;100.00;52697.28;5076517;28;20323;-69
2023/10/02 00:29:51;;;;;;;;;;;;;;;-140.72;100.00;52676.97;5076117;28;19920;-69
2023/10/02 00:32:19;;;;;;;;;;;;;;;-140.72;100.00;52709.44;5076990;28;19921;-69
2023/10/02 00:34:45;;;;;;;;;;;;;;;-140.72;100.00;52679.00;5076059;28;20301;-69
2023/10/02 00:37:13;;;;;;;;;;;;;;;-140.72;100.00;52713.50;5073338;28;19981;-70
2023/10/02 00:39:40;;;;;;;;;;;;;;;-140.72;100.00;52715.53;5070429;28;19966;-69
2023/10/02 00:42:24;;;;;;;;;;;;;;;-140.72;100.00;52711.47;5088592;28;20493;-69
2023/10/02 00:44:57;;;;;;;;;;;;;;;-140.72;100.00;52731.75;5075774;28;19923;-69
2023/10/02 00:50:16;;;;;;;;;;;;;;;-140.72;100.00;52654.66;5073334;28;19978;-69
2023/10/02 00:52:43;;;;;;;;;;;;;;;-140.72;100.00;52741.91;5063308;28;20371;-69
2023/10/02 00:55:10;;;;;;;;;;;;;;;-140.72;100.00;52713.50;5077026;28;19973;-69
2023/10/02 00:57:36;;;;;;;;;;;;;;;-140.72;100.00;52703.34;5078825;28;20302;-69
2023/10/02 01:00:07;;;;;;;;;;;;;;;-140.72;100.00;52707.41;5079310;28;19920;-69
2023/10/02 01:02:35;;;;;;;;;;;;;;;-140.72;100.00;52725.69;5074594;28;20371;-69
2023/10/02 01:05:01;;;;;;;;;;;;;;;-140.72;100.00;52727.72;5071044;28;20023;-69
2023/10/02 01:07:28;;;;;;;;;;;;;;;-140.72;100.00;52727.72;5071194;28;20011;-69
2023/10/02 01:10:07;;;;;;;;;;;;;;;-140.72;100.00;52752.06;5067436;28;19920;-69
2023/10/02 01:12:43;;;;;;;;;;;;;;;-140.72;100.00;52745.97;5074039;28;19960;-69
2023/10/02 01:15:11;;;;;;;;;;;;;;;-140.72;100.00;52725.69;5066659;28;19916;-69
2023/10/02 01:17:39;;;;;;;;;;;;;;;-140.72;100.00;52681.03;5075971;28;19916;-69
2023/10/02 01:20:12;;;;;;;;;;;;;;;-140.72;100.00;52731.75;5073633;28;19966;-69
2023/10/02 01:22:38;;;;;;;;;;;;;;;-140.72;100.00;52719.59;5075642;28;19951;-69
2023/10/02 01:25:13;;;;;;;;;;;;;;;-140.72;100.00;52748.00;5074862;28;19917;-69
2023/10/02 01:27:50;;;;;;;;;;;;;;;-140.72;100.00;52699.31;5074817;28;19920;-69
2023/10/02 01:30:18;;;;;;;;;;;;;;;-140.72;100.00;52729.75;5063776;28;19924;-69
2023/10/02 01:35:36;;;;;;;;;;;;;;;-140.72;100.00;52748.00;5068324;28;20287;-69
2023/10/02 01:38:14;;;;;;;;;;;;;;;-140.72;100.00;52731.75;5074402;28;19923;-69
2023/10/02 01:40:40;;;;;;;;;;;;;;;-140.72;100.00;52727.72;5074771;28;19974;-69
2023/10/02 01:43:15;;;;;;;;;;;;;;;-140.72;100.00;52760.19;5075208;28;20415;-69
2023/10/02 01:45:45;;;;;;;;;;;;;;;-140.72;100.00;52741.91;5074413;28;20413;-69
2023/10/02 01:48:14;;;;;;;;;;;;;;;-140.72;100.00;52760.19;5074686;28;19999;-69
2023/10/02 01:50:43;;;;;;;;;;;;;;;-140.72;100.00;52743.94;5063631;28;19920;-69
2023/10/02 01:53:28;;;;;;;;;;;;;;;-140.72;100.00;52748.00;5067871;28;19916;-69
2023/10/02 01:56:11;;;;;;;;;;;;;;;-140.72;100.00;52723.66;5072004;28;20393;-69
2023/10/02 01:58:36;;;;;;;;;;;;;;;-140.72;100.00;52725.69;5088342;28;20050;-69
2023/10/02 02:01:03;;;;;;;;;;;;;;;-140.72;100.00;52735.81;5065272;28;20278;-69
2023/10/02 02:03:28;;;;;;;;;;;;;;;-140.72;100.00;52735.81;5075111;28;19966;-69
2023/10/02 02:05:54;;;;;;;;;;;;;;;-140.72;100.00;52766.25;5064491;28;20363;-69
2023/10/02 02:08:22;;;;;;;;;;;;;;;-140.72;100.00;52723.66;5073151;28;19928;-69
2023/10/02 02:10:48;;;;;;;;;;;;;;;-140.72;100.00;52707.41;5076525;28;20263;-69
2023/10/02 02:13:14;;;;;;;;;;;;;;;-140.72;100.00;52725.69;5073538;28;19959;-69
2023/10/02 02:15:44;;;;;;;;;;;;;;;-140.72;100.00;52743.94;5075455;28;19962;-69
2023/10/02 02:18:09;;;;;;;;;;;;;;;-140.72;100.00;52699.31;5070458;28;20426;-69
2023/10/02 02:20:44;;;;;;;;;;;;;;;-140.72;100.00;52762.22;5074375;28;19955;-69
2023/10/02 02:23:14;;;;;;;;;;;;;;;-140.72;100.00;52717.56;5074131;28;19923;-69
2023/10/02 02:25:39;;;;;;;;;;;;;;;-140.72;100.00;52764.25;5066266;28;20354;-69
2023/10/02 02:28:06;;;;;;;;;;;;;;;-140.72;100.00;52778.44;5074689;28;19935;-69
2023/10/02 02:30:40;;;;;;;;;;;;;;;-140.72;100.00;52731.75;5071322;28;19920;-69
2023/10/02 02:33:07;;;;;;;;;;;;;;;-140.72;100.00;52758.16;5074013;28;20319;-69
2023/10/02 02:35:35;;;;;;;;;;;;;;;-140.72;100.00;52731.75;5073278;28;19921;-69
2023/10/02 02:38:02;;;;;;;;;;;;;;;-140.72;100.00;52766.25;5073647;28;19916;-69
2023/10/02 02:40:30;;;;;;;;;;;;;;;-140.72;100.00;52748.00;5073773;28;20251;-69
2023/10/02 02:42:56;;;;;;;;;;;;;;;-140.72;100.00;52733.78;5074564;28;19973;-69
2023/10/02 02:45:28;;;;;;;;;;;;;;;-140.72;100.00;52739.88;5072578;28;19917;-69
2023/10/02 02:47:57;;;;;;;;;;;;;;;-140.72;100.00;52764.25;5073429;28;19920;-69
2023/10/02 02:50:28;;;;;;;;;;;;;;;-140.72;100.00;52723.66;5073734;28;20317;-69
2023/10/02 02:53:16;;;;;;;;;;;;;;;-140.72;100.00;52764.25;5073714;28;20358;-69
2023/10/02 02:55:38;;;;;;;;;;;;;;;-140.72;100.00;52758.16;5073381;28;19965;-69
2023/10/02 02:58:06;;;;;;;;;;;;;;;-140.72;100.00;52748.00;5073880;28;20398;-69
2023/10/02 03:00:35;;;;;;;;;;;;;;;-140.72;100.00;52758.16;5061068;28;20275;-69
2023/10/02 03:03:01;;;;;;;;;;;;;;;-140.72;100.00;52762.22;5074075;28;19956;-69
2023/10/02 03:05:40;;;;;;;;;;;;;;;-140.72;100.00;52778.44;5081647;28;19939;-69
2023/10/02 03:08:06;;;;;;;;;;;;;;;-140.72;100.00;52750.03;5070580;28;20372;-69
2023/10/02 03:10:39;;;;;;;;;;;;;;;-140.72;100.00;52752.06;5074756;28;19917;-69
2023/10/02 03:13:08;;;;;;;;;;;;;;;-140.72;100.00;52774.38;5085255;28;20119;-69
2023/10/02 03:15:45;;;;;;;;;;;;;;;-140.72;100.00;52748.00;5083242;28;20380;-69
2023/10/02 03:18:32;;;;;;;;;;;;;;;-140.72;100.00;52764.25;5073857;28;19925;-69
2023/10/02 03:21:14;;;;;;;;;;;;;;;-140.72;100.00;52800.75;5073428;28;19916;-69
2023/10/02 03:23:42;;;;;;;;;;;;;;;-140.72;100.00;52770.31;5072884;28;19923;-69
2023/10/02 03:26:21;;;;;;;;;;;;;;;-140.72;100.00;52766.25;5073242;28;19967;-69
2023/10/02 03:28:47;;;;;;;;;;;;;;;-140.72;100.00;52766.25;5073826;28;20252;-69
2023/10/02 03:31:16;;;;;;;;;;;;;;;-140.72;100.00;52796.72;5073332;28;19916;-69
2023/10/02 03:33:42;;;;;;;;;;;;;;;-140.72;100.00;52756.13;5075271;28;19920;-69
2023/10/02 03:36:10;;;;;;;;;;;;;;;-140.72;100.00;52770.31;5073380;28;20263;-69
2023/10/02 03:38:41;;;;;;;;;;;;;;;-140.72;100.00;52796.72;5064429;28;20334;-69
2023/10/02 03:41:08;;;;;;;;;;;;;;;-140.72;100.00;52772.34;5073756;28;19963;-69
2023/10/02 03:43:47;;;;;;;;;;;;;;;-140.72;100.00;52788.59;5073626;28;19942;-69
2023/10/02 03:46:22;;;;;;;;;;;;;;;-140.72;100.00;52786.56;5082406;28;20258;-69
2023/10/02 03:48:51;;;;;;;;;;;;;;;-140.72;100.00;52770.31;5076237;28;19920;-69
2023/10/02 03:51:35;;;;;;;;;;;;;;;-140.72;100.00;52780.47;5076712;28;19923;-69
2023/10/02 03:54:17;;;;;;;;;;;;;;;-140.72;100.00;52741.91;5079525;28;19924;-69
2023/10/02 03:56:47;;;;;;;;;;;;;;;-140.72;100.00;52766.25;5074948;28;19921;-69
2023/10/02 03:59:13;;;;;;;;;;;;;;;-140.72;100.00;52782.50;5076662;28;19966;-69
2023/10/02 04:01:40;;;;;;;;;;;;;;;-140.72;100.00;52768.28;5077639;28;20354;-69
2023/10/02 04:04:32;;;;;;;;;;;;;;;-140.72;100.00;52756.13;5076980;28;19917;-69
2023/10/02 04:06:55;;;;;;;;;;;;;;;-140.72;100.00;52774.38;5079820;28;19945;-69
2023/10/02 04:09:21;;;;;;;;;;;;;;;-140.72;100.00;52806.84;5076636;28;19916;-70
2023/10/02 04:11:53;;;;;;;;;;;;;;;-140.72;100.00;52764.25;5076490;28;19916;-70
2023/10/02 04:14:18;;;;;;;;;;;;;;;-140.72;100.00;52762.22;5067406;28;19916;-72
2023/10/02 04:17:00;;;;;;;;;;;;;;;-140.72;100.00;52764.25;5076292;28;19927;-71
2023/10/02 04:19:25;;;;;;;;;;;;;;;-140.72;100.00;52770.31;5082856;28;20009;-70
2023/10/02 04:21:57;;;;;;;;;;;;;;;-140.72;100.00;52762.22;5076107;28;19947;-70
2023/10/02 04:24:23;;;;;;;;;;;;;;;-140.72;100.00;52760.19;5070886;28;19920;-72
2023/10/02 04:27:08;;;;;;;;;;;;;;;-140.72;100.00;52800.75;5076176;28;20283;-73
2023/10/02 04:29:38;;;;;;;;;;;;;;;-140.72;100.00;52760.19;5077272;28;19927;-73
2023/10/02 04:32:14;;;;;;;;;;;;;;;-140.72;100.00;52776.41;5074592;28;19923;-73
2023/10/02 04:34:50;;;;;;;;;;;;;;;-140.72;100.00;52713.50;5074795;28;19920;-73
2023/10/02 04:37:22;;;;;;;;;;;;;;;-140.72;100.00;52756.13;5076522;28;19920;-73
2023/10/02 04:39:52;;;;;;;;;;;;;;;-140.72;100.00;52776.41;5064243;28;20001;-73
2023/10/02 04:43:19;;;;;;;;;;;;;;;-140.72;100.00;52788.59;5089003;28;19920;-73
2023/10/02 04:45:20;;;;;;;;;;;;;;;-140.72;100.00;52756.13;5069756;28;19916;-73
2023/10/02 04:47:47;;;;;;;;;;;;;;;-140.72;100.00;52817.00;5075498;28;19947;-72
2023/10/02 04:50:34;;;;;;;;;;;;;;;-140.72;100.00;52788.59;5075491;28;19935;-71
2023/10/02 04:56:07;;;;;;;;;;;;;;;-140.72;100.00;52796.72;5076467;28;19946;-71
2023/10/02 04:58:36;;;;;;;;;;;;;;;-140.72;100.00;52750.03;5064548;28;20062;-71
2023/10/02 05:03:28;;;;;;;;;;;;;;;-140.72;100.00;52766.25;5072954;28;19920;-72
2023/10/02 05:05:54;;;;;;;;;;;;;;;-140.72;100.00;52798.72;5068112;28;20065;-71
2023/10/02 05:08:21;;;;;;;;;;;;;;;-140.72;100.00;52756.13;5075007;28;19927;-71
2023/10/02 05:10:56;;;;;;;;;;;;;;;-140.72;100.00;52766.25;5076652;28;20261;-71
2023/10/02 05:16:12;;;;;;;;;;;;;;;-140.72;100.00;52768.28;5075177;28;19938;-69
2023/10/02 05:18:51;;;;;;;;;;;;;;;-140.72;100.00;52788.59;5074815;28;19917;-69
2023/10/02 05:21:17;;;;;;;;;;;;;;;-140.72;100.00;52804.81;5079202;28;20003;-69
2023/10/02 05:24:00;;;;;;;;;;;;;;;-140.72;100.00;52825.13;5075067;28;20349;-69
2023/10/02 05:26:36;;;;;;;;;;;;;;;-140.72;100.00;52748.00;5086497;28;19917;-69
2023/10/02 05:29:08;;;;;;;;;;;;;;;-140.72;100.00;52772.34;5075416;28;19917;-69
2023/10/02 05:31:40;;;;;;;;;;;;;;;-140.72;100.00;52800.75;5074731;28;19921;-69
2023/10/02 05:34:06;;;;;;;;;;;;;;;-140.72;100.00;52819.03;5075039;28;19946;-69
2023/10/02 05:36:32;;;;;;;;;;;;;;;-140.72;100.00;52752.06;5061993;28;19999;-69
2023/10/02 05:41:44;;;;;;;;;;;;;;;-140.72;100.00;52814.97;5074739;28;19935;-68
2023/10/02 05:44:13;;;;;;;;;;;;;;;-140.72;100.00;52764.25;5070243;28;19966;-68
2023/10/02 05:46:52;;;;;;;;;;;;;;;-140.72;100.00;52788.59;5073898;28;19921;-71
2023/10/02 05:49:23;;;;;;;;;;;;;;;-140.72;100.00;52798.72;5081963;28;19920;-69
2023/10/02 05:51:48;;;;;;;;;;;;;;;-140.72;100.00;52764.25;5088875;28;19916;-72
2023/10/02 05:54:13;;;;;;;;;;;;;;;-140.72;100.00;52764.25;5084672;28;20096;-73
2023/10/02 05:56:39;;;;;;;;;;;;;;;-140.72;100.00;52764.25;5074213;28;19974;-72
2023/10/02 06:02:11;;;;;;;;;;;;;;;-140.72;100.00;52768.28;5073231;28;19985;-71
2023/10/02 06:04:36;;;;;;;;;;;;;;;-140.72;100.00;52772.34;5068183;28;19939;-71
2023/10/02 06:07:03;;;;;;;;;;;;;;;-140.72;100.00;52792.66;5066127;28;19916;-71
2023/10/02 06:09:43;;;;;;;;;;;;;;;-140.72;100.00;52774.38;5074638;28;19995;-72
2023/10/02 06:12:12;;;;;;;;;;;;;;;-140.72;100.00;52792.66;5074149;28;19959;-69
2023/10/02 06:14:39;;;;;;;;;;;;;;;-140.72;100.00;52745.97;5074140;28;19917;-68
2023/10/02 06:17:05;;;;;;;;;;;;;;;-140.72;100.00;52788.59;5073934;28;19916;-69
2023/10/02 06:19:42;;;;;;;;;;;;;;;-140.72;100.00;52778.44;5067236;28;20326;-68
2023/10/02 06:22:07;;;;;;;;;;;;;;;-140.72;100.00;52770.31;5085850;28;19923;-69
2023/10/02 06:24:32;;;;;;;;;;;;;;;-140.72;100.00;52752.06;5071826;28;19920;-68
2023/10/02 06:26:58;;;;;;;;;;;;;;;-140.72;100.00;52745.97;5073854;28;19916;-68
2023/10/02 06:29:32;;;;;;;;;;;;;;;-140.72;100.00;52794.69;5070099;28;20015;-68
2023/10/02 06:32:05;;;;;;;;;;;;;;;-140.72;100.00;52788.59;5073725;28;20003;-68
2023/10/02 06:34:37;;;;;;;;;;;;;;;-140.72;100.00;52739.88;5070799;28;19982;-68
2023/10/02 06:37:07;;;;;;;;;;;;;;;-140.72;100.00;52766.25;5084671;28;19924;-68
2023/10/02 06:39:36;;;;;;;;;;;;;;;-140.72;100.00;52776.41;5076697;28;20267;-69
2023/10/02 06:42:04;;;;;;;;;;;;;;;-140.72;100.00;52776.41;5073411;28;20391;-68
2023/10/02 06:44:52;;;;;;;;;;;;;;;-140.72;100.00;52764.25;5070555;28;19921;-69
2023/10/02 06:47:18;;;;;;;;;;;;;;;-140.72;100.00;52735.81;5067160;28;19920;-68
2023/10/02 06:49:45;;;;;;;;;;;;;;;-140.72;100.00;52729.75;5072285;28;19927;-68
2023/10/02 06:52:15;;;;;;;;;;;;;;;-140.72;100.00;52764.25;5073796;28;19916;-68
2023/10/02 06:54:43;;;;;;;;;;;;;;;-140.72;100.00;52764.25;5072926;28;19981;-68
2023/10/02 06:57:11;;;;;;;;;;;;;;;-140.72;100.00;52745.97;5087494;28;20391;-68
2023/10/02 06:59:38;;;;;;;;;;;;;;;-140.72;100.00;52760.19;5068571;28;19921;-68
2023/10/02 07:02:12;;;;;;;;;;;;;;;-140.72;100.00;52760.19;5076216;28;20393;-70
2023/10/02 07:04:37;;;;;;;;;;;;;;;-140.72;100.00;52750.03;5079788;28;19921;-70
2023/10/02 07:07:07;;;;;;;;;;;;;;;-140.72;100.00;52745.97;5064214;28;20864;-70
2023/10/02 07:09:36;;;;;;;;;;;;;;;-140.72;100.00;52709.44;5072990;28;19955;-70
2023/10/02 07:12:14;;;;;;;;;;;;;;;-140.72;100.00;52723.66;5072734;28;20301;-70
2023/10/02 07:14:41;;;;;;;;;;;;;;;-140.72;100.00;52713.50;5070838;28;20003;-70
2023/10/02 07:17:22;;;;;;;;;;;;;;;-140.72;100.00;52725.69;5060873;28;19933;-70
2023/10/02 07:19:48;;;;;;;;;;;;;;;-140.72;100.00;52713.50;5067509;28;19939;-70
2023/10/02 07:22:16;;;;;;;;;;;;;;;-140.72;100.00;52697.28;5076413;28;19948;-70
2023/10/02 07:24:48;;;;;;;;;;;;;;;-140.72;100.00;52745.97;5070988;28;19928;-70
2023/10/02 07:27:24;;;;;;;;;;;;;;;-140.72;100.00;52715.53;5080353;28;20271;-70
2023/10/02 07:29:58;;;;;;;;;;;;;;;-140.72;100.00;52705.38;5077051;28;19963;-70
2023/10/02 07:32:26;;;;;;;;;;;;;;;-140.72;100.00;52727.72;5079687;28;19962;-70
2023/10/02 07:34:52;;;;;;;;;;;;;;;-140.72;100.00;52707.41;5073784;28;19924;-70
2023/10/02 07:37:21;;;;;;;;;;;;;;;-140.72;100.00;52723.66;5075702;28;20294;-70
2023/10/02 07:39:48;;;;;;;;;;;;;;;-140.72;100.00;52719.59;5069993;28;19944;-70
2023/10/02 07:42:15;;;;;;;;;;;;;;;-140.72;100.00;52707.41;5068875;28;19929;-70
2023/10/02 07:44:41;;;;;;;;;;;;;;;-140.72;100.00;52713.50;5073683;28;19920;-70
2023/10/02 07:47:10;;;;;;;;;;;;;;;-140.72;100.00;52711.47;5075719;28;19928;-70
2023/10/02 07:49:39;;;;;;;;;;;;;;;-140.72;100.00;52664.81;5072362;28;20007;-70
2023/10/02 07:52:08;;;;;;;;;;;;;;;-140.72;100.00;52666.84;5070866;28;19970;-70
2023/10/02 07:54:44;;;;;;;;;;;;;;;-140.72;100.00;52709.44;5071703;28;19989;-70
2023/10/02 07:57:12;;;;;;;;;;;;;;;-140.72;100.00;52668.84;5070691;28;19917;-70
2023/10/02 07:59:38;;;;;;;;;;;;;;;-140.72;100.00;52660.75;5071034;28;19921;-72
2023/10/02 08:02:21;;;;;;;;;;;;;;;-140.72;100.00;52648.56;5075068;28;19916;-72
2023/10/02 08:04:47;;;;;;;;;;;;;;;-140.72;100.00;52658.72;5072197;28;19925;-72
2023/10/02 08:07:12;;;;;;;;;;;;;;;-140.72;100.00;52634.38;5071555;28;19927;-72
2023/10/02 08:09:39;;;;;;;;;;;;;;;-140.72;100.00;52632.34;5079723;28;20011;-72
2023/10/02 08:12:08;;;;;;;;;;;;;;;-140.72;100.00;52626.25;5070760;28;20640;-72
2023/10/02 08:14:41;;;;;;;;;;;;;;;-140.72;100.00;52630.31;5067519;28;19956;-73
2023/10/02 08:19:54;;;;;;;;;;;;;;;-140.72;100.00;52658.72;5062909;28;19956;-71
2023/10/02 08:22:25;;;;;;;;;;;;;;;-140.72;100.00;52634.38;5078954;28;19916;-72
2023/10/02 08:24:52;;;;;;;;;;;;;;;-140.72;100.00;52614.06;5070329;28;20294;-72
2023/10/02 08:27:18;;;;;;;;;;;;;;;-140.72;100.00;52622.19;5062135;28;20012;-72
2023/10/02 08:29:44;;;;;;;;;;;;;;;-140.72;100.00;52620.16;5074275;28;19917;-72
2023/10/02 08:32:09;;;;;;;;;;;;;;;-140.72;100.00;52601.91;5073874;28;20383;-72
2023/10/02 08:34:35;;;;;;;;;;;;;;;-140.72;100.00;52591.75;5074460;28;19920;-72
2023/10/02 08:37:12;;;;;;;;;;;;;;;-140.72;100.00;52636.38;5073957;28;19974;-72
2023/10/02 08:39:41;;;;;;;;;;;;;;;-140.72;100.00;52648.56;5065504;28;19970;-72
2023/10/02 08:42:09;;;;;;;;;;;;;;;-140.72;100.00;52595.81;5071283;28;19974;-72
2023/10/02 08:44:38;;;;;;;;;;;;;;;-140.72;100.00;52630.31;5070153;28;20015;-72
2023/10/02 08:47:06;;;;;;;;;;;;;;;-140.72;100.00;52620.16;5076501;28;20386;-71
2023/10/02 08:49:31;;;;;;;;;;;;;;;-140.72;100.00;52626.25;5071148;28;20291;-72
2023/10/02 08:52:00;;;;;;;;;;;;;;;-140.72;100.00;52575.50;5070993;28;19920;-70
2023/10/02 08:54:27;;;;;;;;;;;;;;;-140.72;100.00;52587.69;5066473;28;19998;-71
2023/10/02 08:57:06;;;;;;;;;;;;;;;-140.72;100.00;52601.91;5071465;28;19979;-71
2023/10/02 08:59:38;;;;;;;;;;;;;;;-140.72;100.00;52522.75;5073608;28;20378;-71
2023/10/02 09:02:16;;;;;;;;;;;;;;;-140.72;100.00;52571.47;5070109;28;20248;-71
2023/10/02 09:05:06;;;;;;;;;;;;;;;-140.72;100.00;52573.50;5068365;28;20030;-72
2023/10/02 09:08:01;;;;;;;;;;;;;;;-140.72;100.00;52557.25;5067822;28;19920;-71
2023/10/02 09:10:28;;;;;;;;;;;;;;;-140.72;100.00;52559.28;5070372;28;19964;-70
2023/10/02 09:13:13;;;;;;;;;;;;;;;-140.72;100.00;52551.16;5062913;28;20397;-70
2023/10/02 09:15:44;;;;;;;;;;;;;;;-140.72;100.00;52541.03;5068711;28;19955;-70
2023/10/02 09:18:22;;;;;;;;;;;;;;;-140.72;100.00;52551.16;5069589;28;19928;-71
2023/10/02 09:21:04;;;;;;;;;;;;;;;-140.72;100.00;52539.00;5066788;28;19924;-71
2023/10/02 09:23:30;;;;;;;;;;;;;;;-140.72;100.00;52530.88;5069560;28;19925;-71
2023/10/02 09:26:16;;;;;;;;;;;;;;;-140.72;100.00;52498.41;5073166;28;19935;-71
2023/10/02 09:28:44;;;;;;;;;;;;;;;-140.72;100.00;52516.66;5070657;28;19928;-71
2023/10/02 09:31:14;;;;;;;;;;;;;;;-140.72;100.00;52490.28;5069981;28;19935;-71
2023/10/02 09:33:40;;;;;;;;;;;;;;;-140.72;100.00;52512.59;5062739;28;19921;-71
2023/10/02 09:36:06;;;;;;;;;;;;;;;-140.72;100.00;52500.44;5067291;28;20007;-71
2023/10/02 09:38:32;;;;;;;;;;;;;;;-140.72;100.00;52530.88;5066907;28;20033;-71
2023/10/02 09:43:32;;;;;;;;;;;;;;;-140.72;100.00;52528.84;5072830;28;19920;-71
2023/10/02 09:46:05;;;;;;;;;;;;;;;-140.72;100.00;52541.03;5064441;28;19920;-71
2023/10/02 09:51:15;;;;;;;;;;;;;;;-140.72;100.00;52541.03;5072457;28;20029;-71
2023/10/02 09:54:02;;;;;;;;;;;;;;;-140.72;100.00;52520.72;5071306;28;20486;-72
2023/10/02 09:56:33;;;;;;;;;;;;;;;-140.72;100.00;52528.84;5068232;28;20292;-71
2023/10/02 09:59:15;;;;;;;;;;;;;;;-140.72;100.00;52555.22;5062565;28;19920;-71
2023/10/02 10:01:41;;;;;;;;;;;;;;;-140.72;100.00;52516.66;5069359;28;20025;-72
2023/10/02 10:07:06;;;;;;;;;;;;;;;-140.72;100.00;52486.22;5067656;28;19928;-72
2023/10/02 10:09:50;;;;;;;;;;;;;;;-140.72;100.00;52520.72;5063025;28;19943;-72
2023/10/02 10:15:25;;;;;;;;;;;;;;;-140.72;100.00;52516.66;5071704;28;19962;-72
2023/10/02 10:17:51;;;;;;;;;;;;;;;-140.72;100.00;52530.88;5067557;28;19920;-72
2023/10/02 10:20:20;;;;;;;;;;;;;;;-140.72;100.00;52534.94;5068704;28;19920;-72
2023/10/02 10:22:53;;;;;;;;;;;;;;;-140.72;100.00;52536.97;5074787;28;20414;-72
2023/10/02 10:27:55;;;;;;;;;;;;;;;-140.72;100.00;52514.63;5072262;28;20444;-72
2023/10/02 10:30:39;;;;;;;;;;;;;;;-140.72;100.00;52520.72;5075456;28;19920;-72
2023/10/02 10:33:15;;;;;;;;;;;;;;;-140.72;100.00;52490.28;5057281;28;19924;-72
2023/10/02 10:35:57;;;;;;;;;;;;;;;-140.72;100.00;52496.38;5063993;28;20010;-71
2023/10/02 10:38:36;;;;;;;;;;;;;;;-140.72;100.00;52431.44;5073924;28;19993;-72
2023/10/02 10:41:05;;;;;;;;;;;;;;;-140.72;100.00;52401.00;5065320;28;19928;-72
2023/10/02 10:43:44;;;;;;;;;;;;;;;-140.72;100.00;52382.75;5068752;28;19932;-72
2023/10/02 10:46:28;;;;;;;;;;;;;;;-140.72;100.00;52401.00;5069514;28;19920;-71
2023/10/02 10:49:03;;;;;;;;;;;;;;;-140.72;100.00;52419.28;5065366;28;19925;-72
2023/10/02 10:51:33;;;;;;;;;;;;;;;-140.72;100.00;52380.72;5069711;28;19924;-71
2023/10/02 10:54:25;;;;;;;;;;;;;;;-140.72;100.00;52403.03;5071759;28;20297;-74
2023/10/02 10:56:56;;;;;;;;;;;;;;;-140.72;100.00;52403.03;5068689;28;19944;-71
2023/10/02 10:59:24;;;;;;;;;;;;;;;-140.72;100.00;52411.16;5062658;28;19917;-71
2023/10/02 11:04:34;;;;;;;;;;;;;;;-140.72;100.00;52401.00;5068574;28;19954;-71
2023/10/02 11:06:59;;;;;;;;;;;;;;;-140.72;100.00;52427.38;5069895;28;19968;-71
2023/10/02 11:09:24;;;;;;;;;;;;;;;-140.72;100.00;52407.09;5064602;28;19978;-71
2023/10/02 11:11:50;;;;;;;;;;;;;;;-140.72;100.00;52419.28;5065166;28;19959;-73
2023/10/02 11:14:22;;;;;;;;;;;;;;;-140.72;100.00;52346.22;5066913;28;19923;-71
2023/10/02 11:16:51;;;;;;;;;;;;;;;-140.72;100.00;52394.91;5064701;28;20298;-71
2023/10/02 11:22:14;;;;;;;;;;;;;;;-140.72;100.00;52429.41;5069278;28;20291;-71
2023/10/02 11:24:40;;;;;;;;;;;;;;;-140.72;100.00;52394.91;5068087;28;19942;-76
2023/10/02 11:27:06;;;;;;;;;;;;;;;-140.72;100.00;52394.91;5064717;28;19929;-71
2023/10/02 11:29:41;;;;;;;;;;;;;;;-140.72;100.00;52358.41;5067283;28;19923;-71
2023/10/02 11:32:22;;;;;;;;;;;;;;;-140.72;100.00;52342.16;5083380;28;19920;-71
2023/10/02 11:34:59;;;;;;;;;;;;;;;-140.72;100.00;52254.91;5073392;28;19924;-71
2023/10/02 11:37:24;;;;;;;;;;;;;;;-140.72;100.00;52289.41;5071822;28;19970;-72
2023/10/02 11:39:50;;;;;;;;;;;;;;;-140.72;100.00;52309.69;5068009;28;20279;-71
2023/10/02 11:42:17;;;;;;;;;;;;;;;-140.72;100.00;52325.94;5070412;28;19924;-72
2023/10/02 11:44:42;;;;;;;;;;;;;;;-140.72;100.00;52279.25;5066759;28;20053;-71
2023/10/02 11:47:09;;;;;;;;;;;;;;;-140.72;100.00;52295.50;5070520;28;19924;-71
2023/10/02 11:49:35;;;;;;;;;;;;;;;-140.72;100.00;52293.47;5064734;28;19955;-71
2023/10/02 11:52:00;;;;;;;;;;;;;;;-140.72;100.00;52269.13;5069765;28;19920;-71
2023/10/02 11:54:26;;;;;;;;;;;;;;;-140.72;100.00;52301.59;5061004;28;19921;-71
2023/10/02 11:56:51;;;;;;;;;;;;;;;-140.72;100.00;52303.59;5072175;28;19917;-71
2023/10/02 11:59:16;;;;;;;;;;;;;;;-140.72;100.00;52293.47;5069378;28;19977;-72
2023/10/02 12:01:48;;;;;;;;;;;;;;;-140.72;100.00;52313.75;5061224;28;19928;-71
2023/10/02 12:04:14;;;;;;;;;;;;;;;-140.72;100.00;52315.78;5064571;28;19943;-72
2023/10/02 12:06:39;;;;;;;;;;;;;;;-140.72;100.00;52364.47;5068660;28;20283;-71
2023/10/02 12:09:05;;;;;;;;;;;;;;;-140.72;100.00;52340.13;5075891;28;19924;-71
2023/10/02 12:11:34;;;;;;;;;;;;;;;-140.72;100.00;52378.69;5076413;28;19920;-71
2023/10/02 12:14:00;;;;;;;;;;;;;;;-140.72;100.00;52244.78;5076091;28;19925;-71
2023/10/02 12:16:25;;;;;;;;;;;;;;;-140.72;100.00;52301.59;5077072;28;19927;-72
2023/10/02 12:18:51;;;;;;;;;;;;;;;-140.72;100.00;52236.66;5076101;28;20276;-72
2023/10/02 12:21:17;;;;;;;;;;;;;;;-140.72;100.00;52242.75;5076184;28;19927;-72
2023/10/02 12:23:46;;;;;;;;;;;;;;;-140.72;100.00;52265.06;5074138;28;19927;-72
2023/10/02 12:26:15;;;;;;;;;;;;;;;-140.72;100.00;52258.97;5065278;28;20373;-73
2023/10/02 12:28:40;;;;;;;;;;;;;;;-140.72;100.00;52230.56;5070743;28;19962;-75
2023/10/02 12:31:10;;;;;;;;;;;;;;;-140.72;100.00;52232.59;5074585;28;19920;-71
2023/10/02 12:33:35;;;;;;;;;;;;;;;-140.72;100.00;52179.84;5061058;28;20394;-71
2023/10/02 12:36:02;;;;;;;;;;;;;;;-140.72;55.13;52118.97;5074045;28;19959;-71
2023/10/02 12:38:28;;;;;;;;;;;;;;;-140.72;0.00;52131.16;5071542;28;19929;-71
2023/10/02 12:40:53;;;;;;;;;;;;;;;-140.72;0.00;52179.84;5074349;28;19968;-71
2023/10/02 12:43:19;;;;;;;;;;;;;;;-140.72;0.24;52155.50;5074429;28;19928;-71
2023/10/02 12:45:44;;;;;;;;;;;;;;;-140.72;0.00;52127.09;5074326;28;20015;-71
2023/10/02 12:48:12;;;;;;;;;;;;;;;-140.72;0.00;52114.91;5073924;28;19943;-72
2023/10/02 12:50:40;;;;;;;;;;;;;;;-140.72;0.00;52029.69;5074157;28;19920;-71
2023/10/02 12:53:05;;;;;;;;;;;;;;;-140.72;0.00;52017.53;5072883;28;19950;-72
2023/10/02 12:55:32;;;;;;;;;;;;;;;-140.72;0.00;52037.81;5073675;28;19920;-72
2023/10/02 12:57:58;;;;;;;;;;;;;;;-140.72;0.00;52072.31;5074056;28;19924;-72
2023/10/02 13:00:24;;;;;;;;;;;;;;;-140.72;0.00;52074.34;5073097;28;19931;-72
2023/10/02 13:02:49;;;;;;;;;;;;;;;-140.72;0.00;52106.78;5075302;28;20046;-72
2023/10/02 13:05:14;;;;;;;;;;;;;;;-140.72;0.00;52074.34;5072313;28;20015;-72
2023/10/02 13:07:41;;;;;;;;;;;;;;;-140.72;0.00;52076.34;5068473;28;19920;-72
2023/10/02 13:10:06;;;;;;;;;;;;;;;-140.72;0.00;52090.56;5065194;28;20457;-72
2023/10/02 13:12:34;;;;;;;;;;;;;;;-140.72;0.00;52052.00;5074775;28;20007;-72
2023/10/02 13:14:59;;;;;;;;;;;;;;;-140.72;0.00;52173.75;5076906;28;19920;-72
2023/10/02 13:17:24;;;;;;;;;;;;;;;-140.72;0.00;52177.81;5066786;28;19928;-72